sensor_id;sensor_type;location;lat;lon;timestamp;P1;durP1;ratioP1;P2;durP2;ratioP2
60088;SDS011;45961;53.574;55.878;2022-12-24T00:00:54;14.40;;;6.85;;
60088;SDS011;45961;53.574;55.878;2022-12-24T00:01:56;11.00;;;6.45;;
60088;SDS011;45961;53.574;55.878;2022-12-24T00:02:57;18.10;;;8.23;;
60088;SDS011;45961;53.574;55.878;2022-12-24T00:03:58;5.93;;;2.95;;
60088;SDS011;45961;53.574;55.878;2022-12-24T00:04:59;13.65;;;6.47;;
60088;SDS011;45961;53.574;55.878;2022-12-24T00:06:07;12.25;;;6.25;;
60088;SDS011;45961;53.574;55.878;2022-12-24T00:08:13;11.38;;;6.22;;
60088;SDS011;45961;53.574;55.878;2022-12-24T00:09:14;13.07;;;5.78;;
60088;SDS011;45961;53.574;55.878;2022-12-24T00:10:14;12.20;;;6.32;;
60088;SDS011;45961;53.574;55.878;2022-12-24T00:11:16;13.23;;;7.15;;
60088;SDS011;45961;53.574;55.878;2022-12-24T00:12:16;10.80;;;6.10;;
60088;SDS011;45961;53.574;55.878;2022-12-24T00:13:18;14.95;;;7.65;;
60088;SDS011;45961;53.574;55.878;2022-12-24T00:14:19;14.23;;;8.10;;
60088;SDS011;45961;53.574;55.878;2022-12-24T00:15:21;13.82;;;7.38;;
60088;SDS011;45961;53.574;55.878;2022-12-24T00:16:21;12.40;;;6.95;;
60088;SDS011;45961;53.574;55.878;2022-12-24T00:18:24;13.60;;;7.35;;
60088;SDS011;45961;53.574;55.878;2022-12-24T00:19:25;12.82;;;6.25;;
60088;SDS011;45961;53.574;55.878;2022-12-24T00:20:26;13.73;;;7.68;;
60088;SDS011;45961;53.574;55.878;2022-12-24T00:21:27;18.98;;;7.90;;
60088;SDS011;45961;53.574;55.878;2022-12-24T00:22:27;14.40;;;7.28;;
60088;SDS011;45961;53.574;55.878;2022-12-24T00:23:28;12.95;;;6.05;;
60088;SDS011;45961;53.574;55.878;2022-12-24T00:24:29;13.43;;;6.50;;
60088;SDS011;45961;53.574;55.878;2022-12-24T00:25:30;13.73;;;6.75;;
60088;SDS011;45961;53.574;55.878;2022-12-24T00:26:32;14.68;;;7.40;;
60088;SDS011;45961;53.574;55.878;2022-12-24T00:27:33;16.50;;;8.82;;
60088;SDS011;45961;53.574;55.878;2022-12-24T00:28:34;11.98;;;7.40;;
60088;SDS011;45961;53.574;55.878;2022-12-24T00:29:35;14.48;;;8.00;;
60088;SDS011;45961;53.574;55.878;2022-12-24T00:30:37;12.45;;;6.70;;
60088;SDS011;45961;53.574;55.878;2022-12-24T00:31:39;15.60;;;7.20;;
60088;SDS011;45961;53.574;55.878;2022-12-24T00:32:40;7.55;;;4.40;;
60088;SDS011;45961;53.574;55.878;2022-12-24T00:33:40;15.95;;;8.48;;
60088;SDS011;45961;53.574;55.878;2022-12-24T00:35:42;15.02;;;7.55;;
60088;SDS011;45961;53.574;55.878;2022-12-24T00:36:43;15.07;;;7.35;;
60088;SDS011;45961;53.574;55.878;2022-12-24T00:37:47;14.90;;;8.50;;
60088;SDS011;45961;53.574;55.878;2022-12-24T00:38:49;16.50;;;7.70;;
60088;SDS011;45961;53.574;55.878;2022-12-24T00:39:50;16.98;;;7.80;;
60088;SDS011;45961;53.574;55.878;2022-12-24T00:40:51;14.35;;;7.20;;
60088;SDS011;45961;53.574;55.878;2022-12-24T00:41:57;12.27;;;6.55;;
60088;SDS011;45961;53.574;55.878;2022-12-24T00:42:58;12.52;;;6.72;;
60088;SDS011;45961;53.574;55.878;2022-12-24T00:45:09;8.75;;;5.28;;
60088;SDS011;45961;53.574;55.878;2022-12-24T00:46:11;14.20;;;6.35;;
60088;SDS011;45961;53.574;55.878;2022-12-24T00:47:12;16.73;;;7.55;;
60088;SDS011;45961;53.574;55.878;2022-12-24T00:48:13;14.30;;;6.57;;
60088;SDS011;45961;53.574;55.878;2022-12-24T00:49:14;17.17;;;8.02;;
60088;SDS011;45961;53.574;55.878;2022-12-24T00:50:15;9.80;;;5.88;;
60088;SDS011;45961;53.574;55.878;2022-12-24T00:52:18;15.55;;;7.45;;
60088;SDS011;45961;53.574;55.878;2022-12-24T00:53:19;17.13;;;8.63;;
60088;SDS011;45961;53.574;55.878;2022-12-24T00:54:20;15.40;;;7.55;;
60088;SDS011;45961;53.574;55.878;2022-12-24T00:55:20;13.98;;;7.43;;
60088;SDS011;45961;53.574;55.878;2022-12-24T00:56:21;20.80;;;8.65;;
60088;SDS011;45961;53.574;55.878;2022-12-24T00:57:23;15.70;;;8.18;;
60088;SDS011;45961;53.574;55.878;2022-12-24T00:58:24;15.75;;;8.23;;
60088;SDS011;45961;53.574;55.878;2022-12-24T00:59:25;18.02;;;8.82;;
60088;SDS011;45961;53.574;55.878;2022-12-24T01:00:26;14.98;;;7.00;;
60088;SDS011;45961;53.574;55.878;2022-12-24T01:01:27;16.75;;;8.02;;
60088;SDS011;45961;53.574;55.878;2022-12-24T01:03:29;18.13;;;8.70;;
60088;SDS011;45961;53.574;55.878;2022-12-24T01:04:36;18.70;;;8.30;;
60088;SDS011;45961;53.574;55.878;2022-12-24T01:05:55;15.00;;;7.72;;
60088;SDS011;45961;53.574;55.878;2022-12-24T01:06:56;19.95;;;9.35;;
60088;SDS011;45961;53.574;55.878;2022-12-24T01:07:57;20.60;;;10.45;;
60088;SDS011;45961;53.574;55.878;2022-12-24T01:08:58;22.35;;;8.95;;
60088;SDS011;45961;53.574;55.878;2022-12-24T01:09:59;20.05;;;10.48;;
60088;SDS011;45961;53.574;55.878;2022-12-24T01:11:01;17.83;;;8.95;;
60088;SDS011;45961;53.574;55.878;2022-12-24T01:12:02;19.88;;;8.88;;
60088;SDS011;45961;53.574;55.878;2022-12-24T01:13:04;19.27;;;10.25;;
60088;SDS011;45961;53.574;55.878;2022-12-24T01:14:04;19.48;;;8.55;;
60088;SDS011;45961;53.574;55.878;2022-12-24T01:15:06;18.77;;;8.02;;
60088;SDS011;45961;53.574;55.878;2022-12-24T01:16:15;17.50;;;8.43;;
60088;SDS011;45961;53.574;55.878;2022-12-24T01:17:18;13.90;;;7.13;;
60088;SDS011;45961;53.574;55.878;2022-12-24T01:18:19;16.65;;;7.53;;
60088;SDS011;45961;53.574;55.878;2022-12-24T01:19:20;16.77;;;7.93;;
60088;SDS011;45961;53.574;55.878;2022-12-24T01:20:21;18.65;;;8.88;;
60088;SDS011;45961;53.574;55.878;2022-12-24T01:21:22;15.65;;;8.30;;
60088;SDS011;45961;53.574;55.878;2022-12-24T01:22:23;21.27;;;10.80;;
60088;SDS011;45961;53.574;55.878;2022-12-24T01:23:25;20.98;;;9.63;;
60088;SDS011;45961;53.574;55.878;2022-12-24T01:24:26;21.48;;;11.98;;
60088;SDS011;45961;53.574;55.878;2022-12-24T01:25:27;15.45;;;8.50;;
60088;SDS011;45961;53.574;55.878;2022-12-24T01:26:28;14.90;;;7.97;;
60088;SDS011;45961;53.574;55.878;2022-12-24T01:27:29;19.92;;;9.05;;
60088;SDS011;45961;53.574;55.878;2022-12-24T01:28:30;19.20;;;8.50;;
60088;SDS011;45961;53.574;55.878;2022-12-24T01:29:32;13.00;;;8.13;;
60088;SDS011;45961;53.574;55.878;2022-12-24T01:30:33;13.70;;;6.97;;
60088;SDS011;45961;53.574;55.878;2022-12-24T01:31:34;17.65;;;8.25;;
60088;SDS011;45961;53.574;55.878;2022-12-24T01:32:35;15.75;;;6.55;;
60088;SDS011;45961;53.574;55.878;2022-12-24T01:33:36;16.58;;;7.97;;
60088;SDS011;45961;53.574;55.878;2022-12-24T01:34:37;18.40;;;8.77;;
60088;SDS011;45961;53.574;55.878;2022-12-24T01:35:39;13.95;;;7.47;;
60088;SDS011;45961;53.574;55.878;2022-12-24T01:36:41;17.17;;;8.65;;
60088;SDS011;45961;53.574;55.878;2022-12-24T01:37:42;16.08;;;8.32;;
60088;SDS011;45961;53.574;55.878;2022-12-24T01:38:43;14.10;;;8.00;;
60088;SDS011;45961;53.574;55.878;2022-12-24T01:39:44;16.30;;;8.85;;
60088;SDS011;45961;53.574;55.878;2022-12-24T01:40:44;18.15;;;8.00;;
60088;SDS011;45961;53.574;55.878;2022-12-24T01:42:15;18.90;;;8.57;;
60088;SDS011;45961;53.574;55.878;2022-12-24T01:43:39;17.33;;;9.07;;
60088;SDS011;45961;53.574;55.878;2022-12-24T01:44:41;20.77;;;9.90;;
60088;SDS011;45961;53.574;55.878;2022-12-24T01:45:45;18.65;;;9.75;;
60088;SDS011;45961;53.574;55.878;2022-12-24T01:46:48;18.67;;;8.73;;
60088;SDS011;45961;53.574;55.878;2022-12-24T01:47:53;17.85;;;9.55;;
60088;SDS011;45961;53.574;55.878;2022-12-24T01:48:55;19.15;;;9.07;;
60088;SDS011;45961;53.574;55.878;2022-12-24T01:50:00;23.05;;;10.23;;
60088;SDS011;45961;53.574;55.878;2022-12-24T01:51:19;17.20;;;9.60;;
60088;SDS011;45961;53.574;55.878;2022-12-24T01:52:37;19.15;;;10.05;;
60088;SDS011;45961;53.574;55.878;2022-12-24T01:53:38;22.10;;;10.55;;
60088;SDS011;45961;53.574;55.878;2022-12-24T01:54:45;19.42;;;9.88;;
60088;SDS011;45961;53.574;55.878;2022-12-24T01:55:49;17.50;;;9.68;;
60088;SDS011;45961;53.574;55.878;2022-12-24T01:56:53;16.70;;;8.48;;
60088;SDS011;45961;53.574;55.878;2022-12-24T01:58:02;17.33;;;9.45;;
60088;SDS011;45961;53.574;55.878;2022-12-24T01:59:09;19.35;;;10.35;;
60088;SDS011;45961;53.574;55.878;2022-12-24T02:00:13;19.30;;;10.25;;
60088;SDS011;45961;53.574;55.878;2022-12-24T02:01:16;18.05;;;9.07;;
60088;SDS011;45961;53.574;55.878;2022-12-24T02:02:17;19.25;;;9.82;;
60088;SDS011;45961;53.574;55.878;2022-12-24T02:03:18;24.15;;;11.23;;
60088;SDS011;45961;53.574;55.878;2022-12-24T02:05:49;22.70;;;11.45;;
60088;SDS011;45961;53.574;55.878;2022-12-24T02:06:53;31.02;;;13.75;;
60088;SDS011;45961;53.574;55.878;2022-12-24T02:07:54;32.83;;;15.45;;
60088;SDS011;45961;53.574;55.878;2022-12-24T02:08:56;30.73;;;15.57;;
60088;SDS011;45961;53.574;55.878;2022-12-24T02:09:58;34.58;;;15.75;;
60088;SDS011;45961;53.574;55.878;2022-12-24T02:11:00;36.50;;;17.70;;
60088;SDS011;45961;53.574;55.878;2022-12-24T02:12:01;33.47;;;15.82;;
60088;SDS011;45961;53.574;55.878;2022-12-24T02:13:04;33.58;;;16.42;;
60088;SDS011;45961;53.574;55.878;2022-12-24T02:14:06;30.92;;;14.27;;
60088;SDS011;45961;53.574;55.878;2022-12-24T02:15:08;29.63;;;13.98;;
60088;SDS011;45961;53.574;55.878;2022-12-24T02:21:15;19.52;;;11.10;;
60088;SDS011;45961;53.574;55.878;2022-12-24T02:34:05;28.07;;;14.80;;
60088;SDS011;45961;53.574;55.878;2022-12-24T02:36:24;35.08;;;15.27;;
60088;SDS011;45961;53.574;55.878;2022-12-24T02:37:51;32.45;;;15.50;;
60088;SDS011;45961;53.574;55.878;2022-12-24T02:39:05;34.38;;;15.65;;
60088;SDS011;45961;53.574;55.878;2022-12-24T02:40:15;32.95;;;13.80;;
60088;SDS011;45961;53.574;55.878;2022-12-24T02:41:21;20.58;;;10.85;;
60088;SDS011;45961;53.574;55.878;2022-12-24T02:42:26;25.92;;;13.02;;
60088;SDS011;45961;53.574;55.878;2022-12-24T02:43:37;24.65;;;13.27;;
60088;SDS011;45961;53.574;55.878;2022-12-24T02:44:44;30.92;;;14.75;;
60088;SDS011;45961;53.574;55.878;2022-12-24T02:45:53;23.30;;;12.63;;
60088;SDS011;45961;53.574;55.878;2022-12-24T02:46:59;25.20;;;12.50;;
60088;SDS011;45961;53.574;55.878;2022-12-24T02:48:02;31.00;;;14.00;;
60088;SDS011;45961;53.574;55.878;2022-12-24T02:49:05;22.33;;;11.30;;
60088;SDS011;45961;53.574;55.878;2022-12-24T02:50:08;27.55;;;13.38;;
60088;SDS011;45961;53.574;55.878;2022-12-24T02:51:10;24.92;;;11.27;;
60088;SDS011;45961;53.574;55.878;2022-12-24T02:53:33;23.30;;;12.98;;
60088;SDS011;45961;53.574;55.878;2022-12-24T02:54:35;25.05;;;12.93;;
60088;SDS011;45961;53.574;55.878;2022-12-24T02:55:38;29.27;;;13.05;;
60088;SDS011;45961;53.574;55.878;2022-12-24T02:59:29;23.13;;;12.02;;
60088;SDS011;45961;53.574;55.878;2022-12-24T03:08:52;25.42;;;12.65;;
60088;SDS011;45961;53.574;55.878;2022-12-24T03:10:05;21.75;;;11.40;;
60088;SDS011;45961;53.574;55.878;2022-12-24T03:11:16;22.63;;;12.43;;
60088;SDS011;45961;53.574;55.878;2022-12-24T03:12:29;23.70;;;9.95;;
60088;SDS011;45961;53.574;55.878;2022-12-24T03:13:35;25.13;;;11.45;;
60088;SDS011;45961;53.574;55.878;2022-12-24T03:14:37;23.77;;;10.45;;
60088;SDS011;45961;53.574;55.878;2022-12-24T03:15:41;20.25;;;10.43;;
60088;SDS011;45961;53.574;55.878;2022-12-24T03:16:43;19.33;;;11.18;;
60088;SDS011;45961;53.574;55.878;2022-12-24T03:17:46;20.55;;;10.50;;
60088;SDS011;45961;53.574;55.878;2022-12-24T03:18:49;24.77;;;11.70;;
60088;SDS011;45961;53.574;55.878;2022-12-24T03:19:53;22.08;;;10.20;;
60088;SDS011;45961;53.574;55.878;2022-12-24T03:21:29;21.40;;;11.23;;
60088;SDS011;45961;53.574;55.878;2022-12-24T03:22:25;20.85;;;10.68;;
60088;SDS011;45961;53.574;55.878;2022-12-24T03:23:26;17.40;;;10.63;;
60088;SDS011;45961;53.574;55.878;2022-12-24T03:24:27;23.23;;;10.82;;
60088;SDS011;45961;53.574;55.878;2022-12-24T03:25:28;19.95;;;10.93;;
60088;SDS011;45961;53.574;55.878;2022-12-24T03:26:31;22.40;;;11.77;;
60088;SDS011;45961;53.574;55.878;2022-12-24T03:27:33;23.60;;;10.93;;
60088;SDS011;45961;53.574;55.878;2022-12-24T03:28:36;20.52;;;10.70;;
60088;SDS011;45961;53.574;55.878;2022-12-24T03:29:39;21.58;;;10.52;;
60088;SDS011;45961;53.574;55.878;2022-12-24T03:30:42;22.55;;;11.10;;
60088;SDS011;45961;53.574;55.878;2022-12-24T03:31:51;22.70;;;11.95;;
60088;SDS011;45961;53.574;55.878;2022-12-24T03:32:59;17.85;;;9.80;;
60088;SDS011;45961;53.574;55.878;2022-12-24T03:34:00;21.55;;;11.65;;
60088;SDS011;45961;53.574;55.878;2022-12-24T03:35:21;20.40;;;11.10;;
60088;SDS011;45961;53.574;55.878;2022-12-24T03:36:22;34.10;;;16.30;;
60088;SDS011;45961;53.574;55.878;2022-12-24T03:37:24;36.65;;;17.25;;
60088;SDS011;45961;53.574;55.878;2022-12-24T03:38:27;32.38;;;17.00;;
60088;SDS011;45961;53.574;55.878;2022-12-24T03:39:28;23.70;;;13.50;;
60088;SDS011;45961;53.574;55.878;2022-12-24T03:40:29;31.60;;;16.65;;
60088;SDS011;45961;53.574;55.878;2022-12-24T03:42:57;40.35;;;19.00;;
60088;SDS011;45961;53.574;55.878;2022-12-24T03:43:58;38.42;;;17.98;;
60088;SDS011;45961;53.574;55.878;2022-12-24T03:44:59;38.45;;;17.58;;
60088;SDS011;45961;53.574;55.878;2022-12-24T03:46:06;41.03;;;19.00;;
60088;SDS011;45961;53.574;55.878;2022-12-24T03:47:07;43.67;;;22.52;;
60088;SDS011;45961;53.574;55.878;2022-12-24T03:48:08;47.75;;;22.55;;
60088;SDS011;45961;53.574;55.878;2022-12-24T03:49:09;41.47;;;20.00;;
60088;SDS011;45961;53.574;55.878;2022-12-24T03:50:10;42.03;;;20.10;;
60088;SDS011;45961;53.574;55.878;2022-12-24T03:51:18;45.30;;;21.70;;
60088;SDS011;45961;53.574;55.878;2022-12-24T03:52:21;49.78;;;24.92;;
60088;SDS011;45961;53.574;55.878;2022-12-24T03:53:22;52.38;;;24.55;;
60088;SDS011;45961;53.574;55.878;2022-12-24T03:54:23;46.55;;;23.52;;
60088;SDS011;45961;53.574;55.878;2022-12-24T03:55:23;42.95;;;22.35;;
60088;SDS011;45961;53.574;55.878;2022-12-24T03:56:25;41.10;;;21.50;;
60088;SDS011;45961;53.574;55.878;2022-12-24T03:57:26;44.67;;;21.70;;
60088;SDS011;45961;53.574;55.878;2022-12-24T03:58:27;44.30;;;23.85;;
60088;SDS011;45961;53.574;55.878;2022-12-24T03:59:28;37.40;;;19.88;;
60088;SDS011;45961;53.574;55.878;2022-12-24T04:00:30;38.95;;;22.30;;
60088;SDS011;45961;53.574;55.878;2022-12-24T04:01:31;49.75;;;21.55;;
60088;SDS011;45961;53.574;55.878;2022-12-24T04:02:32;48.08;;;22.98;;
60088;SDS011;45961;53.574;55.878;2022-12-24T04:03:33;42.95;;;23.08;;
60088;SDS011;45961;53.574;55.878;2022-12-24T04:04:34;43.47;;;20.85;;
60088;SDS011;45961;53.574;55.878;2022-12-24T04:05:37;32.95;;;18.15;;
60088;SDS011;45961;53.574;55.878;2022-12-24T04:06:38;33.78;;;18.50;;
60088;SDS011;45961;53.574;55.878;2022-12-24T04:07:59;43.05;;;21.52;;
60088;SDS011;45961;53.574;55.878;2022-12-24T04:09:00;36.90;;;21.58;;
60088;SDS011;45961;53.574;55.878;2022-12-24T04:10:04;39.92;;;20.45;;
60088;SDS011;45961;53.574;55.878;2022-12-24T04:13:11;35.92;;;17.67;;
60088;SDS011;45961;53.574;55.878;2022-12-24T04:14:14;29.80;;;16.90;;
60088;SDS011;45961;53.574;55.878;2022-12-24T04:15:15;32.17;;;17.75;;
60088;SDS011;45961;53.574;55.878;2022-12-24T04:16:16;34.25;;;18.08;;
60088;SDS011;45961;53.574;55.878;2022-12-24T04:17:22;28.50;;;14.75;;
60088;SDS011;45961;53.574;55.878;2022-12-24T04:18:25;32.63;;;16.90;;
60088;SDS011;45961;53.574;55.878;2022-12-24T04:19:27;28.73;;;15.07;;
60088;SDS011;45961;53.574;55.878;2022-12-24T04:20:29;27.17;;;14.57;;
60088;SDS011;45961;53.574;55.878;2022-12-24T04:21:30;30.60;;;14.23;;
60088;SDS011;45961;53.574;55.878;2022-12-24T04:22:31;27.95;;;13.75;;
60088;SDS011;45961;53.574;55.878;2022-12-24T04:23:32;25.92;;;15.68;;
60088;SDS011;45961;53.574;55.878;2022-12-24T04:24:35;26.73;;;15.07;;
60088;SDS011;45961;53.574;55.878;2022-12-24T04:25:36;22.90;;;12.05;;
60088;SDS011;45961;53.574;55.878;2022-12-24T04:26:37;28.35;;;13.00;;
60088;SDS011;45961;53.574;55.878;2022-12-24T04:27:38;23.05;;;12.90;;
60088;SDS011;45961;53.574;55.878;2022-12-24T04:28:39;23.77;;;12.85;;
60088;SDS011;45961;53.574;55.878;2022-12-24T04:29:41;24.27;;;12.48;;
60088;SDS011;45961;53.574;55.878;2022-12-24T04:30:42;25.63;;;13.40;;
60088;SDS011;45961;53.574;55.878;2022-12-24T04:31:43;23.63;;;13.35;;
60088;SDS011;45961;53.574;55.878;2022-12-24T04:32:45;22.08;;;12.48;;
60088;SDS011;45961;53.574;55.878;2022-12-24T04:33:46;24.92;;;12.95;;
60088;SDS011;45961;53.574;55.878;2022-12-24T04:34:47;20.52;;;12.00;;
60088;SDS011;45961;53.574;55.878;2022-12-24T04:35:50;23.17;;;13.52;;
60088;SDS011;45961;53.574;55.878;2022-12-24T04:36:51;20.85;;;11.90;;
60088;SDS011;45961;53.574;55.878;2022-12-24T04:37:52;20.80;;;12.43;;
60088;SDS011;45961;53.574;55.878;2022-12-24T04:38:53;26.08;;;11.90;;
60088;SDS011;45961;53.574;55.878;2022-12-24T04:39:54;23.70;;;12.43;;
60088;SDS011;45961;53.574;55.878;2022-12-24T04:40:59;22.35;;;11.77;;
60088;SDS011;45961;53.574;55.878;2022-12-24T04:42:01;22.13;;;12.63;;
60088;SDS011;45961;53.574;55.878;2022-12-24T04:43:02;18.83;;;11.05;;
60088;SDS011;45961;53.574;55.878;2022-12-24T04:44:23;23.55;;;12.27;;
60088;SDS011;45961;53.574;55.878;2022-12-24T04:45:24;20.02;;;11.77;;
60088;SDS011;45961;53.574;55.878;2022-12-24T04:46:26;23.58;;;10.98;;
60088;SDS011;45961;53.574;55.878;2022-12-24T04:47:31;19.75;;;10.60;;
60088;SDS011;45961;53.574;55.878;2022-12-24T04:48:32;24.13;;;11.45;;
60088;SDS011;45961;53.574;55.878;2022-12-24T04:50:34;19.00;;;10.77;;
60088;SDS011;45961;53.574;55.878;2022-12-24T04:51:35;15.05;;;9.05;;
60088;SDS011;45961;53.574;55.878;2022-12-24T04:53:37;26.50;;;12.17;;
60088;SDS011;45961;53.574;55.878;2022-12-24T04:54:39;21.55;;;11.48;;
60088;SDS011;45961;53.574;55.878;2022-12-24T04:55:44;20.15;;;10.95;;
60088;SDS011;45961;53.574;55.878;2022-12-24T04:56:50;21.98;;;11.30;;
60088;SDS011;45961;53.574;55.878;2022-12-24T04:57:51;19.45;;;10.38;;
60088;SDS011;45961;53.574;55.878;2022-12-24T04:58:52;23.05;;;11.50;;
60088;SDS011;45961;53.574;55.878;2022-12-24T04:59:53;23.83;;;11.10;;
60088;SDS011;45961;53.574;55.878;2022-12-24T05:00:55;23.17;;;10.60;;
60088;SDS011;45961;53.574;55.878;2022-12-24T05:01:56;15.57;;;9.63;;
60088;SDS011;45961;53.574;55.878;2022-12-24T05:03:00;19.15;;;11.05;;
60088;SDS011;45961;53.574;55.878;2022-12-24T05:04:04;16.30;;;8.38;;
60088;SDS011;45961;53.574;55.878;2022-12-24T05:05:06;23.67;;;12.90;;
60088;SDS011;45961;53.574;55.878;2022-12-24T05:06:09;24.23;;;11.65;;
60088;SDS011;45961;53.574;55.878;2022-12-24T05:07:14;24.02;;;11.90;;
60088;SDS011;45961;53.574;55.878;2022-12-24T05:08:35;17.67;;;10.40;;
60088;SDS011;45961;53.574;55.878;2022-12-24T05:09:36;25.30;;;13.80;;
60088;SDS011;45961;53.574;55.878;2022-12-24T05:10:39;21.38;;;11.77;;
60088;SDS011;45961;53.574;55.878;2022-12-24T05:11:40;25.00;;;13.23;;
60088;SDS011;45961;53.574;55.878;2022-12-24T05:12:41;21.25;;;10.57;;
60088;SDS011;45961;53.574;55.878;2022-12-24T05:13:42;22.58;;;11.85;;
60088;SDS011;45961;53.574;55.878;2022-12-24T05:14:44;27.58;;;13.35;;
60088;SDS011;45961;53.574;55.878;2022-12-24T05:15:45;29.08;;;14.65;;
60088;SDS011;45961;53.574;55.878;2022-12-24T05:16:46;32.90;;;15.32;;
60088;SDS011;45961;53.574;55.878;2022-12-24T05:17:47;29.50;;;16.48;;
60088;SDS011;45961;53.574;55.878;2022-12-24T05:18:48;23.75;;;14.70;;
60088;SDS011;45961;53.574;55.878;2022-12-24T05:19:49;21.58;;;11.98;;
60088;SDS011;45961;53.574;55.878;2022-12-24T05:20:50;19.75;;;10.77;;
60088;SDS011;45961;53.574;55.878;2022-12-24T05:21:51;26.65;;;14.32;;
60088;SDS011;45961;53.574;55.878;2022-12-24T05:23:15;28.63;;;14.85;;
60088;SDS011;45961;53.574;55.878;2022-12-24T05:24:39;21.33;;;11.98;;
60088;SDS011;45961;53.574;55.878;2022-12-24T05:25:58;20.98;;;11.95;;
60088;SDS011;45961;53.574;55.878;2022-12-24T05:27:18;21.77;;;12.00;;
60088;SDS011;45961;53.574;55.878;2022-12-24T05:28:19;17.33;;;10.93;;
60088;SDS011;45961;53.574;55.878;2022-12-24T05:29:22;15.40;;;9.48;;
60088;SDS011;45961;53.574;55.878;2022-12-24T05:30:23;19.60;;;9.45;;
60088;SDS011;45961;53.574;55.878;2022-12-24T05:31:25;15.63;;;9.38;;
60088;SDS011;45961;53.574;55.878;2022-12-24T05:32:28;17.40;;;9.82;;
60088;SDS011;45961;53.574;55.878;2022-12-24T05:33:29;17.63;;;9.02;;
60088;SDS011;45961;53.574;55.878;2022-12-24T05:34:29;14.50;;;9.02;;
60088;SDS011;45961;53.574;55.878;2022-12-24T05:35:30;15.20;;;7.40;;
60088;SDS011;45961;53.574;55.878;2022-12-24T05:36:31;19.60;;;9.27;;
60088;SDS011;45961;53.574;55.878;2022-12-24T05:37:32;14.75;;;7.80;;
60088;SDS011;45961;53.574;55.878;2022-12-24T05:38:34;11.27;;;6.95;;
60088;SDS011;45961;53.574;55.878;2022-12-24T05:39:35;16.63;;;7.72;;
60088;SDS011;45961;53.574;55.878;2022-12-24T05:40:36;13.27;;;7.80;;
60088;SDS011;45961;53.574;55.878;2022-12-24T05:41:37;13.32;;;7.07;;
60088;SDS011;45961;53.574;55.878;2022-12-24T05:42:38;9.43;;;5.93;;
60088;SDS011;45961;53.574;55.878;2022-12-24T05:43:39;16.52;;;8.15;;
60088;SDS011;45961;53.574;55.878;2022-12-24T05:44:40;12.52;;;7.72;;
60088;SDS011;45961;53.574;55.878;2022-12-24T05:45:41;16.42;;;9.05;;
60088;SDS011;45961;53.574;55.878;2022-12-24T05:46:42;10.35;;;5.80;;
60088;SDS011;45961;53.574;55.878;2022-12-24T05:47:44;16.95;;;8.38;;
60088;SDS011;45961;53.574;55.878;2022-12-24T05:48:46;14.48;;;7.95;;
60088;SDS011;45961;53.574;55.878;2022-12-24T05:49:48;12.00;;;7.72;;
60088;SDS011;45961;53.574;55.878;2022-12-24T05:50:52;12.50;;;7.95;;
60088;SDS011;45961;53.574;55.878;2022-12-24T05:51:56;16.50;;;6.78;;
60088;SDS011;45961;53.574;55.878;2022-12-24T05:52:57;11.65;;;6.88;;
60088;SDS011;45961;53.574;55.878;2022-12-24T05:53:58;15.50;;;8.65;;
60088;SDS011;45961;53.574;55.878;2022-12-24T05:55:22;13.85;;;7.82;;
60088;SDS011;45961;53.574;55.878;2022-12-24T05:56:23;12.30;;;6.72;;
60088;SDS011;45961;53.574;55.878;2022-12-24T05:57:24;10.88;;;7.03;;
60088;SDS011;45961;53.574;55.878;2022-12-24T05:58:25;11.25;;;7.20;;
60088;SDS011;45961;53.574;55.878;2022-12-24T05:59:27;12.32;;;7.20;;
60088;SDS011;45961;53.574;55.878;2022-12-24T06:00:29;10.65;;;6.25;;
60088;SDS011;45961;53.574;55.878;2022-12-24T06:01:30;9.27;;;5.50;;
60088;SDS011;45961;53.574;55.878;2022-12-24T06:02:31;13.20;;;7.88;;
60088;SDS011;45961;53.574;55.878;2022-12-24T06:03:32;11.55;;;5.30;;
60088;SDS011;45961;53.574;55.878;2022-12-24T06:04:34;11.90;;;6.82;;
60088;SDS011;45961;53.574;55.878;2022-12-24T06:05:37;13.57;;;6.35;;
60088;SDS011;45961;53.574;55.878;2022-12-24T06:06:40;11.82;;;6.85;;
60088;SDS011;45961;53.574;55.878;2022-12-24T06:07:41;12.57;;;6.90;;
60088;SDS011;45961;53.574;55.878;2022-12-24T06:08:42;12.25;;;7.07;;
60088;SDS011;45961;53.574;55.878;2022-12-24T06:09:43;11.70;;;7.40;;
60088;SDS011;45961;53.574;55.878;2022-12-24T06:10:44;8.80;;;6.13;;
60088;SDS011;45961;53.574;55.878;2022-12-24T06:11:45;11.82;;;7.18;;
60088;SDS011;45961;53.574;55.878;2022-12-24T06:12:46;16.52;;;7.65;;
60088;SDS011;45961;53.574;55.878;2022-12-24T06:13:51;14.23;;;6.88;;
60088;SDS011;45961;53.574;55.878;2022-12-24T06:14:52;12.57;;;7.93;;
60088;SDS011;45961;53.574;55.878;2022-12-24T06:15:54;12.55;;;6.63;;
60088;SDS011;45961;53.574;55.878;2022-12-24T06:16:55;12.80;;;7.10;;
60088;SDS011;45961;53.574;55.878;2022-12-24T06:17:59;14.65;;;7.13;;
60088;SDS011;45961;53.574;55.878;2022-12-24T06:19:03;14.00;;;6.97;;
60088;SDS011;45961;53.574;55.878;2022-12-24T06:20:04;11.80;;;6.40;;
60088;SDS011;45961;53.574;55.878;2022-12-24T06:21:06;14.43;;;6.97;;
60088;SDS011;45961;53.574;55.878;2022-12-24T06:22:08;13.68;;;6.82;;
60088;SDS011;45961;53.574;55.878;2022-12-24T06:23:09;11.77;;;6.63;;
60088;SDS011;45961;53.574;55.878;2022-12-24T06:24:10;12.05;;;7.60;;
60088;SDS011;45961;53.574;55.878;2022-12-24T06:25:14;13.73;;;7.13;;
60088;SDS011;45961;53.574;55.878;2022-12-24T06:26:39;14.73;;;7.40;;
60088;SDS011;45961;53.574;55.878;2022-12-24T06:27:47;11.25;;;6.38;;
60088;SDS011;45961;53.574;55.878;2022-12-24T06:29:20;10.93;;;5.85;;
60088;SDS011;45961;53.574;55.878;2022-12-24T06:30:22;13.52;;;6.82;;
60088;SDS011;45961;53.574;55.878;2022-12-24T06:31:24;9.77;;;4.93;;
60088;SDS011;45961;53.574;55.878;2022-12-24T06:33:26;8.88;;;5.35;;
60088;SDS011;45961;53.574;55.878;2022-12-24T06:35:30;7.55;;;5.35;;
60088;SDS011;45961;53.574;55.878;2022-12-24T06:36:31;8.18;;;5.28;;
60088;SDS011;45961;53.574;55.878;2022-12-24T06:37:32;9.85;;;6.18;;
60088;SDS011;45961;53.574;55.878;2022-12-24T06:38:34;14.43;;;5.90;;
60088;SDS011;45961;53.574;55.878;2022-12-24T06:39:35;13.38;;;6.05;;
60088;SDS011;45961;53.574;55.878;2022-12-24T06:40:37;13.75;;;5.75;;
60088;SDS011;45961;53.574;55.878;2022-12-24T06:41:41;12.02;;;5.93;;
60088;SDS011;45961;53.574;55.878;2022-12-24T06:42:42;9.80;;;4.45;;
60088;SDS011;45961;53.574;55.878;2022-12-24T06:44:45;11.25;;;5.57;;
60088;SDS011;45961;53.574;55.878;2022-12-24T06:45:46;8.80;;;5.03;;
60088;SDS011;45961;53.574;55.878;2022-12-24T06:46:49;9.80;;;5.63;;
60088;SDS011;45961;53.574;55.878;2022-12-24T06:47:51;9.65;;;5.20;;
60088;SDS011;45961;53.574;55.878;2022-12-24T06:48:53;7.57;;;3.38;;
60088;SDS011;45961;53.574;55.878;2022-12-24T06:50:55;10.10;;;5.20;;
60088;SDS011;45961;53.574;55.878;2022-12-24T06:51:56;10.13;;;4.70;;
60088;SDS011;45961;53.574;55.878;2022-12-24T06:53:04;12.15;;;6.70;;
60088;SDS011;45961;53.574;55.878;2022-12-24T06:54:06;10.98;;;5.50;;
60088;SDS011;45961;53.574;55.878;2022-12-24T06:55:07;7.78;;;4.15;;
60088;SDS011;45961;53.574;55.878;2022-12-24T06:56:13;8.07;;;4.85;;